Time;durP1;ratioP1;P1;durP2;ratioP2;P2;SDS_P1;SDS_P2;PMS_P1;PMS_P2;Temp;Humidity;BMP_temperature;BMP_pressure;BME280_temperature;BME280_humidity;BME280_pressure;Samples;Min_cycle;Max_cycle;Signal;HPM_P1;HPM_P2
2023/12/21 00:00:37;;;;;;;15.20;13.67;;;;;;;10.37;100.00;148647.75;6183671;23;20162;-56
2023/12/21 00:03:06;;;;;;;14.30;13.03;;;;;;;10.35;100.00;148644.00;6184444;23;20158;-57
2023/12/21 00:05:33;;;;;;;15.37;14.13;;;;;;;10.36;100.00;148645.22;6184516;23;20158;-56
2023/12/21 00:08:00;;;;;;;14.20;13.30;;;;;;;10.29;100.00;148628.81;6183725;23;20178;-57
2023/12/21 00:10:27;;;;;;;14.50;13.30;;;;;;;10.17;100.00;148597.22;6184066;23;20601;-58
2023/12/21 00:12:54;;;;;;;14.87;13.87;;;;;;;10.28;100.00;148625.00;6184128;23;20158;-56
2023/12/21 00:15:21;;;;;;;15.23;13.87;;;;;;;10.13;100.00;148588.34;6184164;23;20236;-57
2023/12/21 00:17:48;;;;;;;14.83;13.77;;;;;;;10.34;100.00;148641.47;6184145;23;20158;-57
2023/12/21 00:20:20;;;;;;;15.77;14.57;;;;;;;10.17;100.00;148598.50;6183899;23;20216;-56
2023/12/21 00:22:47;;;;;;;15.77;14.47;;;;;;;10.11;100.00;148583.25;6183604;23;20158;-56
2023/12/21 00:25:14;;;;;;;17.87;14.77;;;;;;;10.21;100.00;148608.59;6183568;23;20162;-56
2023/12/21 00:27:42;;;;;;;17.10;15.47;;;;;;;10.11;100.00;148583.25;6183485;23;20178;-57
2023/12/21 00:30:10;;;;;;;16.17;14.57;;;;;;;10.04;100.00;148565.59;6183587;23;20158;-57
2023/12/21 00:32:37;;;;;;;16.10;14.37;;;;;;;9.96;100.00;148546.66;6184075;23;20229;-57
2023/12/21 00:35:05;;;;;;;16.43;14.80;;;;;;;9.88;100.00;148526.44;6183482;23;20162;-57
2023/12/21 00:37:36;;;;;;;15.87;14.53;;;;;;;9.77;100.00;148498.63;6183722;23;20245;-56
2023/12/21 00:40:04;;;;;;;18.47;15.30;;;;;;;9.77;100.00;148497.34;6185300;23;20158;-56
2023/12/21 00:42:32;;;;;;;16.50;15.00;;;;;;;9.73;100.00;148487.25;6185842;23;20220;-56
2023/12/21 00:45:00;;;;;;;15.90;14.33;;;;;;;9.57;100.00;148449.38;6185413;23;20196;-55
2023/12/21 00:47:27;;;;;;;15.97;14.50;;;;;;;9.60;100.00;148456.94;6185400;23;20162;-56
2023/12/21 00:50:12;;;;;;;16.70;15.30;;;;;;;9.61;100.00;148458.22;6186053;23;20594;-56
2023/12/21 00:52:40;;;;;;;17.30;15.70;;;;;;;9.64;100.00;148465.78;6185218;23;20205;-57
2023/12/21 00:55:08;;;;;;;16.73;15.27;;;;;;;9.57;100.00;148449.38;6185569;23;20163;-56
2023/12/21 00:57:35;;;;;;;18.20;16.30;;;;;;;9.64;100.00;148467.03;6185701;23;20159;-56
2023/12/21 01:00:03;;;;;;;16.87;15.20;;;;;;;9.55;100.00;148444.31;6185244;23;20166;-56
2023/12/21 01:02:30;;;;;;;17.13;15.83;;;;;;;9.46;100.00;148420.34;6185354;23;20173;-56
2023/12/21 01:04:57;;;;;;;18.23;15.97;;;;;;;9.51;100.00;148434.19;6185646;23;20244;-56
2023/12/21 01:07:24;;;;;;;18.60;16.67;;;;;;;9.43;100.00;148412.72;6185232;23;20162;-57
2023/12/21 01:09:52;;;;;;;18.47;16.70;;;;;;;9.42;100.00;148411.47;6185748;23;20564;-56
2023/12/21 01:12:19;;;;;;;17.70;16.07;;;;;;;9.29;100.00;148378.66;6185824;23;20167;-56
2023/12/21 01:14:46;;;;;;;20.70;16.73;;;;;;;9.32;100.00;148386.22;6185572;23;20209;-57
2023/12/21 01:17:13;;;;;;;18.63;16.87;;;;;;;9.25;100.00;148367.31;6185849;23;20165;-57
2023/12/21 01:19:40;;;;;;;17.60;16.03;;;;;;;9.27;100.00;148373.59;6185184;23;20158;-57
2023/12/21 01:22:08;;;;;;;18.73;16.83;;;;;;;9.21;100.00;148357.22;6185278;23;20228;-56
2023/12/21 01:24:35;;;;;;;20.50;17.77;;;;;;;9.20;100.00;148355.94;6185097;23;20158;-57
2023/12/21 01:27:03;;;;;;;20.93;18.07;;;;;;;9.16;100.00;148345.84;6185172;23;20173;-57
2023/12/21 01:29:30;;;;;;;25.53;18.77;;;;;;;9.13;100.00;148338.22;6184998;23;20243;-56
2023/12/21 01:31:58;;;;;;;21.47;18.43;;;;;;;9.07;100.00;148323.09;6185378;23;20590;-56
2023/12/21 01:34:25;;;;;;;21.70;19.23;;;;;;;9.15;100.00;148343.31;6185453;23;20288;-56
2023/12/21 01:36:52;;;;;;;21.17;19.00;;;;;;;8.89;100.00;147141.78;6184948;23;20162;-57
2023/12/21 01:39:19;;;;;;;21.30;19.10;;;;;;;9.20;100.00;146336.88;6185022;23;20158;-56
2023/12/21 01:41:46;;;;;;;19.23;17.43;;;;;;;9.13;100.00;147149.91;6185298;23;20158;-56
2023/12/21 01:44:14;;;;;;;22.20;18.93;;;;;;;9.13;100.00;148338.22;6184855;23;20167;-56
2023/12/21 01:46:42;;;;;;;25.63;20.40;;;;;;;9.25;100.00;147681.88;6185185;23;20573;-56
2023/12/21 01:49:09;;;;;;;24.43;21.73;;;;;;;9.16;100.00;142597.44;6185019;23;20594;-57
2023/12/21 01:51:37;;;;;;;28.77;22.10;;;;;;;9.32;100.00;136680.34;6184774;23;20170;-56
2023/12/21 01:54:04;;;;;;;25.83;22.70;;;;;;;9.32;100.00;138815.03;6184771;23;20260;-57
2023/12/21 01:56:33;;;;;;;25.73;21.90;;;;;;;9.38;100.00;139031.59;6185136;23;20590;-56
2023/12/21 01:59:01;;;;;;;24.97;21.20;;;;;;;9.39;100.00;142432.47;6184836;23;20162;-58
2023/12/21 02:01:31;;;;;;;25.93;23.00;;;;;;;9.37;100.00;144807.66;6185053;23;20190;-57
2023/12/21 02:03:58;;;;;;;27.03;22.43;;;;;;;9.43;100.00;141947.41;6184768;23;20232;-57
2023/12/21 02:06:26;;;;;;;27.73;22.40;;;;;;;9.46;100.00;140127.72;6184939;23;20213;-56
2023/12/21 02:08:53;;;;;;;29.20;24.40;;;;;;;9.49;100.00;137000.03;6184602;23;20186;-56
2023/12/21 02:11:20;;;;;;;30.03;25.43;;;;;;;9.49;100.00;136128.56;6185082;23;20163;-56
2023/12/21 02:13:47;;;;;;;30.43;26.10;;;;;;;9.53;100.00;132883.38;6185529;23;20163;-59
2023/12/21 02:16:20;;;;;;;32.50;25.97;;;;;;;9.63;100.00;130963.97;6185748;23;20217;-56
2023/12/21 02:18:49;;;;;;;30.63;26.33;;;;;;;9.70;100.00;134660.22;6184428;23;20631;-57
2023/12/21 02:21:17;;;;;;;31.07;25.00;;;;;;;9.72;100.00;135551.81;6184709;23;20217;-56
2023/12/21 02:23:48;;;;;;;28.33;24.70;;;;;;;9.68;100.00;135739.66;6184890;23;20217;-56
2023/12/21 02:26:18;;;;;;;28.73;24.40;;;;;;;9.80;100.00;137384.06;6184443;23;20168;-56
2023/12/21 02:28:45;;;;;;;33.43;26.37;;;;;;;9.82;100.00;137485.91;6184534;23;20219;-57
2023/12/21 02:31:12;;;;;;;31.40;24.73;;;;;;;9.93;100.00;136865.25;6184545;23;20217;-56
2023/12/21 02:33:39;;;;;;;29.30;25.20;;;;;;;10.02;100.00;141969.19;6184508;23;20166;-56
2023/12/21 02:36:07;;;;;;;28.23;24.60;;;;;;;10.01;100.00;148201.22;6184285;23;20237;-57
2023/12/21 02:38:34;;;;;;;30.57;24.03;;;;;;;10.02;100.00;148560.50;6185310;23;20257;-56
2023/12/21 02:41:01;;;;;;;28.83;24.13;;;;;;;9.91;100.00;148534.00;6184692;23;20558;-57
2023/12/21 02:43:30;;;;;;;31.23;26.27;;;;;;;10.02;100.00;148560.50;6184379;23;20217;-56
2023/12/21 02:45:57;;;;;;;30.90;24.63;;;;;;;9.90;100.00;148531.47;6184208;23;20216;-57
2023/12/21 02:48:24;;;;;;;44.10;29.17;;;;;;;9.89;100.00;148528.94;6184545;23;20517;-56
2023/12/21 02:50:51;;;;;;;35.23;27.37;;;;;;;10.00;100.00;148556.75;6184099;23;20162;-56
2023/12/21 02:53:18;;;;;;;41.30;29.70;;;;;;;10.02;100.00;148561.78;6184593;23;20202;-57
2023/12/21 02:55:45;;;;;;;37.73;28.30;;;;;;;9.88;100.00;148525.19;6184504;23;20162;-57
2023/12/21 02:58:12;;;;;;;37.20;28.60;;;;;;;10.02;100.00;148561.78;6184621;23;20598;-57
2023/12/21 03:00:40;;;;;;;34.87;28.03;;;;;;;9.99;100.00;148552.94;6184697;23;20165;-56
2023/12/21 03:03:07;;;;;;;36.27;26.90;;;;;;;10.07;100.00;148573.16;6184488;23;20162;-56
2023/12/21 03:05:34;;;;;;;30.53;25.73;;;;;;;10.09;100.00;148578.25;6184565;23;20162;-56
2023/12/21 03:08:02;;;;;;;33.27;25.77;;;;;;;10.09;100.00;148578.25;6184006;23;20163;-59
2023/12/21 03:10:29;;;;;;;30.97;24.77;;;;;;;10.12;100.00;148585.81;6184100;23;20158;-56
2023/12/21 03:12:56;;;;;;;27.97;23.50;;;;;;;10.05;100.00;148568.13;6184510;23;20161;-56
2023/12/21 03:15:23;;;;;;;26.90;24.00;;;;;;;10.12;100.00;148585.81;6184509;23;20214;-57
2023/12/21 03:17:52;;;;;;;31.30;25.67;;;;;;;10.22;100.00;148611.16;6184403;23;20694;-57
2023/12/21 03:20:19;;;;;;;28.87;24.17;;;;;;;10.01;100.00;148558.03;6183900;23;20209;-56
2023/12/21 03:22:47;;;;;;;32.40;24.10;;;;;;;9.98;100.00;148551.69;6183903;23;20220;-56
2023/12/21 03:25:14;;;;;;;26.03;23.27;;;;;;;9.93;100.00;148539.03;6183906;23;20158;-56
2023/12/21 03:27:41;;;;;;;27.70;22.33;;;;;;;9.97;100.00;148549.16;6184075;23;20162;-58
2023/12/21 03:30:09;;;;;;;24.90;22.37;;;;;;;9.83;100.00;148512.53;6183938;23;20178;-56
2023/12/21 03:32:36;;;;;;;25.37;18.90;;;;;;;9.73;100.00;148488.50;6184246;23;20594;-57
2023/12/21 03:35:06;;;;;;;22.20;20.10;;;;;;;9.78;100.00;148499.88;6184358;23;20159;-56
2023/12/21 03:37:33;;;;;;;19.70;17.90;;;;;;;9.74;100.00;148489.78;6183761;23;20216;-56
2023/12/21 03:40:00;;;;;;;20.20;18.27;;;;;;;9.72;100.00;148485.97;6183753;23;20162;-56
2023/12/21 03:42:27;;;;;;;20.73;18.53;;;;;;;9.70;100.00;148480.94;6183788;23;20162;-57
2023/12/21 03:44:54;;;;;;;20.60;18.40;;;;;;;9.58;100.00;148450.66;6183786;23;20594;-57
2023/12/21 03:47:21;;;;;;;20.77;17.97;;;;;;;9.49;100.00;148429.16;6184200;23;20162;-56
2023/12/21 03:49:49;;;;;;;18.57;16.73;;;;;;;9.62;100.00;148462.03;6184053;23;20189;-57
2023/12/21 03:52:17;;;;;;;18.33;16.40;;;;;;;9.42;100.00;148411.47;6184165;23;20174;-57
2023/12/21 03:54:44;;;;;;;13.90;12.60;;;;;;;9.42;100.00;148411.47;6183734;23;20165;-57
2023/12/21 03:57:11;;;;;;;13.50;12.27;;;;;;;9.39;100.00;148402.63;6184005;23;20166;-58
2023/12/21 03:59:38;;;;;;;13.40;12.33;;;;;;;9.25;100.00;148368.53;6184124;23;20162;-56
2023/12/21 04:02:06;;;;;;;12.40;11.60;;;;;;;9.37;100.00;148397.59;6183989;23;20254;-57
2023/12/21 04:04:33;;;;;;;13.83;12.80;;;;;;;9.17;100.00;148348.31;6183725;23;20163;-56
2023/12/21 04:07:00;;;;;;;12.70;11.77;;;;;;;9.17;100.00;148349.59;6183753;23;20483;-56
2023/12/21 04:09:28;;;;;;;12.20;11.20;;;;;;;9.08;100.00;148325.63;6183509;23;20178;-56
2023/12/21 04:11:55;;;;;;;11.43;10.47;;;;;;;8.84;100.00;148265.00;6183829;23;20158;-56
2023/12/21 04:14:22;;;;;;;12.03;11.17;;;;;;;8.73;100.00;148238.53;6186462;23;20216;-55
2023/12/21 04:16:50;;;;;;;10.37;9.50;;;;;;;8.82;100.00;148261.25;6187263;23;20162;-56
2023/12/21 04:19:18;;;;;;;10.30;9.70;;;;;;;8.70;100.00;148230.91;6186850;23;20165;-56
2023/12/21 04:21:45;;;;;;;9.37;8.87;;;;;;;8.76;100.00;148246.09;6186907;23;20633;-55
2023/12/21 04:24:12;;;;;;;9.30;8.53;;;;;;;8.60;100.00;148206.97;6187382;23;20158;-55
2023/12/21 04:26:40;;;;;;;10.03;7.83;;;;;;;8.70;100.00;148230.91;6186981;23;20165;-55
2023/12/21 04:29:08;;;;;;;9.63;8.37;;;;;;;8.51;100.00;148184.25;6186627;23;20178;-59
2023/12/21 04:31:35;;;;;;;11.17;7.93;;;;;;;8.37;100.00;148148.91;6187399;23;20541;-58
2023/12/21 04:34:02;;;;;;;8.33;7.73;;;;;;;8.35;100.00;148143.88;6186767;23;20228;-59
2023/12/21 04:36:29;;;;;;;8.43;7.87;;;;;;;8.27;100.00;148123.66;6186784;23;20166;-57
2023/12/21 04:38:56;;;;;;;8.60;8.00;;;;;;;8.08;100.00;148075.69;6186634;23;20155;-58
2023/12/21 04:41:23;;;;;;;10.03;8.30;;;;;;;7.99;100.00;148052.97;6186691;23;20212;-58
2023/12/21 04:43:52;;;;;;;7.67;7.30;;;;;;;8.03;100.00;148063.06;6187119;23;20552;-57
2023/12/21 04:46:19;;;;;;;8.97;8.37;;;;;;;7.97;100.00;148047.97;6186757;23;20162;-58
2023/12/21 04:48:46;;;;;;;8.30;7.83;;;;;;;8.01;100.00;148059.31;6186985;23;20213;-58
2023/12/21 04:51:17;;;;;;;9.20;8.37;;;;;;;8.04;100.00;148066.88;6186844;23;20176;-58
2023/12/21 04:53:44;;;;;;;8.80;7.60;;;;;;;7.78;100.00;148001.28;6186529;23;20206;-58
2023/12/21 04:56:11;;;;;;;9.23;6.97;;;;;;;7.64;100.00;147965.94;6187173;23;20538;-59
2023/12/21 04:58:40;;;;;;;6.77;6.33;;;;;;;7.74;100.00;147991.19;6186583;23;20163;-59
2023/12/21 05:01:09;;;;;;;7.10;6.67;;;;;;;7.72;100.00;147987.38;6186672;23;20169;-58
2023/12/21 05:03:36;;;;;;;6.40;6.00;;;;;;;7.90;100.00;148031.53;6186826;23;20169;-58
2023/12/21 05:06:03;;;;;;;6.20;5.80;;;;;;;7.98;100.00;148051.72;6186871;23;20599;-59
2023/12/21 05:08:30;;;;;;;7.23;6.77;;;;;;;7.60;100.00;147957.13;6186886;23;20612;-58
2023/12/21 05:10:57;;;;;;;7.17;6.07;;;;;;;7.98;100.00;148051.72;6186846;23;20590;-57
2023/12/21 05:13:24;;;;;;;8.43;6.13;;;;;;;8.02;100.00;148060.59;6186875;23;20213;-57
2023/12/21 05:15:51;;;;;;;8.07;6.90;;;;;;;8.04;100.00;148066.88;6186649;23;20161;-59
2023/12/21 05:18:20;;;;;;;7.40;6.43;;;;;;;8.03;100.00;148063.06;6186718;23;20162;-59
2023/12/21 05:20:47;;;;;;;9.03;8.23;;;;;;;8.03;100.00;148063.06;6186806;23;20154;-58
2023/12/21 05:23:14;;;;;;;10.30;6.90;;;;;;;8.07;100.00;148074.44;6186533;23;20197;-57
2023/12/21 05:25:41;;;;;;;16.80;6.70;;;;;;;8.05;100.00;148068.13;6185333;23;20158;-58
2023/12/21 05:28:08;;;;;;;7.40;6.97;;;;;;;8.05;100.00;148069.41;6184984;23;20162;-57
2023/12/21 05:30:35;;;;;;;10.80;7.50;;;;;;;8.03;100.00;148064.34;6184875;23;20625;-58
2023/12/21 05:33:02;;;;;;;15.30;8.00;;;;;;;7.93;100.00;148037.88;6184974;23;20163;-58
2023/12/21 05:35:31;;;;;;;8.57;7.63;;;;;;;7.90;100.00;148030.28;6184935;23;20162;-58
2023/12/21 05:37:58;;;;;;;63.47;11.90;;;;;;;7.93;100.00;148039.13;6185003;23;20165;-58
2023/12/21 05:40:25;;;;;;;52.13;11.67;;;;;;;7.96;100.00;148045.44;6184911;23;20612;-57
2023/12/21 05:42:53;;;;;;;28.20;10.63;;;;;;;7.65;100.00;147968.47;6184855;23;20162;-58
2023/12/21 05:45:20;;;;;;;26.03;9.57;;;;;;;7.71;100.00;147983.63;6184838;23;20162;-58
2023/12/21 05:47:47;;;;;;;24.80;9.37;;;;;;;7.79;100.00;148003.81;6184994;23;20190;-59
2023/12/21 05:50:14;;;;;;;10.77;8.67;;;;;;;7.80;100.00;148007.59;6184864;23;20226;-58
2023/12/21 05:52:43;;;;;;;26.90;10.83;;;;;;;7.76;100.00;147997.53;6184941;23;20657;-57
2023/12/21 05:55:15;;;;;;;9.30;8.23;;;;;;;7.61;100.00;147959.66;6184369;23;20189;-59
2023/12/21 05:57:42;;;;;;;14.17;9.13;;;;;;;7.54;100.00;147942.03;6184592;23;20165;-58
2023/12/21 06:00:10;;;;;;;9.60;8.33;;;;;;;7.97;100.00;148049.22;6184563;23;20225;-57
2023/12/21 06:02:37;;;;;;;14.50;8.70;;;;;;;8.00;100.00;148056.78;6184525;23;20166;-58
2023/12/21 06:05:04;;;;;;;12.23;8.20;;;;;;;8.06;100.00;148070.69;6184645;23;20248;-58
2023/12/21 06:07:31;;;;;;;8.97;8.20;;;;;;;8.23;100.00;148114.78;6184954;23;20162;-57
2023/12/21 06:10:00;;;;;;;8.13;7.73;;;;;;;8.40;100.00;148155.25;6184373;23;20237;-57
2023/12/21 06:12:27;;;;;;;30.23;10.00;;;;;;;8.54;100.00;148191.81;6184414;23;20162;-58
2023/12/21 06:14:55;;;;;;;26.87;12.03;;;;;;;8.81;100.00;148257.44;6184731;23;20167;-58
2023/12/21 06:17:22;;;;;;;21.23;11.17;;;;;;;9.07;100.00;148324.38;6184621;23;20150;-58
2023/12/21 06:19:49;;;;;;;25.83;12.23;;;;;;;9.40;100.00;148406.44;6184779;23;20166;-58
2023/12/21 06:22:17;;;;;;;25.30;12.97;;;;;;;9.78;100.00;148501.16;6184660;23;20609;-59
2023/12/21 06:24:44;;;;;;;14.63;12.70;;;;;;;10.16;100.00;148594.69;6184365;23;20162;-60
2023/12/21 06:27:12;;;;;;;21.00;14.13;;;;;;;10.46;100.00;148671.78;6184561;23;20158;-58
2023/12/21 06:29:39;;;;;;;18.47;13.37;;;;;;;10.78;100.00;148750.13;6184297;23;20273;-59
2023/12/21 06:32:07;;;;;;;14.47;13.03;;;;;;;11.20;100.00;148856.34;6184341;23;20166;-59
2023/12/21 06:34:34;;;;;;;13.80;12.33;;;;;;;11.81;100.00;149008.22;6184290;23;20225;-59
2023/12/21 06:37:03;;;;;;;14.83;13.40;;;;;;;12.29;100.00;149129.72;6184350;23;20590;-59
2023/12/21 06:39:31;;;;;;;15.40;13.03;;;;;;;12.53;100.00;149189.19;6184541;23;20212;-59
2023/12/21 06:41:58;;;;;;;18.20;14.23;;;;;;;12.87;100.00;149272.75;6184471;23;20498;-59
2023/12/21 06:44:26;;;;;;;13.60;12.47;;;;;;;13.52;100.00;149437.50;6184137;23;20580;-58
2023/12/21 06:46:53;;;;;;;14.47;12.87;;;;;;;14.06;100.00;149571.81;6184416;23;20241;-58
2023/12/21 06:49:20;;;;;;;14.47;13.10;;;;;;;14.23;99.41;149613.63;6184272;23;20159;-59
2023/12/21 06:51:47;;;;;;;16.40;14.07;;;;;;;14.27;98.36;149623.78;6184345;23;20174;-59
2023/12/21 06:54:14;;;;;;;17.67;13.70;;;;;;;14.31;96.50;149635.19;6183862;23;20259;-60
2023/12/21 06:56:42;;;;;;;17.13;13.83;;;;;;;14.87;93.01;149774.72;6184018;23;20166;-59
2023/12/21 06:59:09;;;;;;;19.93;14.67;;;;;;;14.77;90.81;149750.63;6183791;23;20166;-60
2023/12/21 07:01:37;;;;;;;15.70;14.07;;;;;;;14.89;88.68;149779.81;6184157;23;20154;-59
2023/12/21 07:04:05;;;;;;;19.77;14.37;;;;;;;15.39;88.01;149906.66;6183650;23;20217;-60
2023/12/21 07:06:32;;;;;;;17.23;13.30;;;;;;;15.81;83.42;150012.03;6183872;23;20162;-59
2023/12/21 07:08:59;;;;;;;21.20;15.13;;;;;;;15.26;84.53;149873.69;6183812;23;20217;-59
2023/12/21 07:11:27;;;;;;;27.63;15.33;;;;;;;15.71;82.71;149986.63;6183854;23;20719;-60
2023/12/21 07:13:55;;;;;;;21.73;16.43;;;;;;;15.79;81.28;150006.94;6184168;23;20162;-58
2023/12/21 07:16:23;;;;;;;25.30;17.43;;;;;;;15.80;81.94;150009.50;6183576;23;20244;-59
2023/12/21 07:18:51;;;;;;;18.67;16.63;;;;;;;15.54;82.82;149943.50;6184016;23;20505;-59
2023/12/21 07:21:18;;;;;;;33.53;19.60;;;;;;;15.34;83.28;149892.69;6183765;23;20162;-59
2023/12/21 07:23:45;;;;;;;24.93;19.40;;;;;;;15.37;83.98;149900.28;6184088;23;20158;-60
2023/12/21 07:26:12;;;;;;;23.53;18.93;;;;;;;14.87;83.90;149774.72;6183769;23;20216;-59
2023/12/21 07:28:40;;;;;;;22.20;18.83;;;;;;;15.13;84.62;149839.41;6183469;23;20194;-59
2023/12/21 07:31:07;;;;;;;25.70;19.27;;;;;;;15.49;83.57;149932.00;6183669;23;20185;-58
2023/12/21 07:33:35;;;;;;;32.13;18.90;;;;;;;15.73;81.98;149991.75;6183898;23;20474;-58
2023/12/21 07:36:07;;;;;;;22.23;18.47;;;;;;;15.72;81.35;149989.19;6183840;23;20502;-59
2023/12/21 07:38:34;;;;;;;26.93;20.43;;;;;;;16.19;79.73;150105.97;6183599;23;20162;-58
2023/12/21 07:41:01;;;;;;;23.63;20.60;;;;;;;16.71;76.66;150236.81;6183647;23;20162;-59
2023/12/21 07:43:30;;;;;;;21.80;19.23;;;;;;;17.03;74.53;150316.81;6183439;23;20166;-58
2023/12/21 07:45:57;;;;;;;22.67;20.27;;;;;;;17.34;73.96;150396.88;6183856;23;20190;-60
2023/12/21 07:48:24;;;;;;;24.53;20.90;;;;;;;17.49;72.41;150433.69;6182715;23;20158;-58
2023/12/21 07:50:51;;;;;;;28.73;20.67;;;;;;;17.27;72.37;150379.06;6183669;23;20703;-59
2023/12/21 07:53:20;;;;;;;25.47;21.10;;;;;;;16.71;74.38;150236.81;6183455;23;20268;-59
2023/12/21 07:55:47;;;;;;;21.80;19.50;;;;;;;16.56;75.14;150198.63;6183709;23;20249;-59
2023/12/21 07:58:14;;;;;;;26.50;19.57;;;;;;;16.13;75.62;150091.97;6183271;23;20212;-59
2023/12/21 08:00:41;;;;;;;22.93;19.60;;;;;;;16.38;74.95;150154.19;6183203;23;20233;-60
2023/12/21 08:03:08;;;;;;;25.87;19.90;;;;;;;16.58;74.65;150203.78;6183805;23;20165;-59
2023/12/21 08:05:36;;;;;;;25.60;20.57;;;;;;;16.72;73.74;150239.38;6183249;23;20570;-58
2023/12/21 08:08:03;;;;;;;27.70;20.43;;;;;;;16.79;74.42;150258.41;6183196;23;20169;-59
2023/12/21 08:10:32;;;;;;;23.80;20.47;;;;;;;16.93;74.01;150291.44;6183194;23;20261;-59
2023/12/21 08:12:59;;;;;;;22.90;19.53;;;;;;;17.02;71.41;150314.25;6183285;23;20220;-59
2023/12/21 08:15:26;;;;;;;22.93;20.13;;;;;;;16.62;73.20;150215.22;6183817;23;20188;-59
2023/12/21 08:17:55;;;;;;;30.83;22.03;;;;;;;16.68;73.13;150230.44;6183361;23;20245;-59
2023/12/21 08:20:23;;;;;;;23.80;20.80;;;;;;;17.14;71.65;150344.78;6183700;23;20158;-60
2023/12/21 08:22:51;;;;;;;23.27;19.90;;;;;;;17.13;71.37;150343.50;6183208;23;20173;-59
2023/12/21 08:25:18;;;;;;;21.57;19.33;;;;;;;17.14;70.71;150344.78;6183480;23;20169;-60
2023/12/21 08:27:46;;;;;;;24.20;19.93;;;;;;;17.69;70.81;150484.63;6183393;23;20166;-59
2023/12/21 08:30:14;;;;;;;27.90;19.67;;;;;;;18.39;67.90;150660.03;6183259;23;20182;-59
2023/12/21 08:32:41;;;;;;;23.40;19.87;;;;;;;17.46;69.56;150424.81;6183574;23;20553;-60
2023/12/21 08:35:09;;;;;;;23.70;18.67;;;;;;;18.09;67.54;150585.00;6183542;23;20162;-60
2023/12/21 08:37:36;;;;;;;21.90;18.63;;;;;;;17.59;68.20;150457.91;6183544;23;20197;-59
2023/12/21 08:40:03;;;;;;;25.90;19.97;;;;;;;18.55;66.41;150699.50;6183218;23;20155;-59
2023/12/21 08:42:30;;;;;;;22.42;18.83;;;;;;;18.11;66.64;150588.84;6183283;23;20193;-59
2023/12/21 08:45:03;;;;;;;23.50;19.53;;;;;;;18.12;66.85;150591.41;6183210;23;20245;-59
2023/12/21 08:47:30;;;;;;;35.10;20.10;;;;;;;18.75;64.48;150749.13;6183294;23;20216;-60
2023/12/21 08:50:03;;;;;;;37.53;20.93;;;;;;;18.56;65.93;150702.03;6183585;23;20560;-59
2023/12/21 08:52:30;;;;;;;29.27;20.30;;;;;;;19.14;62.97;150848.31;6183374;23;20170;-60
2023/12/21 08:54:57;;;;;;;26.85;19.52;;;;;;;19.42;61.28;150918.31;6183721;23;20170;-65
2023/12/21 08:57:25;;;;;;;33.80;19.98;;;;;;;18.97;63.02;150805.06;6184237;23;20628;-64
2023/12/21 08:59:52;;;;;;;21.67;19.48;;;;;;;18.57;64.15;150704.59;6184534;23;20162;-59
2023/12/21 09:02:21;;;;;;;24.40;18.90;;;;;;;18.51;64.77;150690.53;6185141;23;20158;-60
2023/12/21 09:04:48;;;;;;;20.90;18.52;;;;;;;19.31;62.62;150890.34;6184996;23;20216;-60
2023/12/21 09:07:15;;;;;;;20.63;18.17;;;;;;;18.75;62.47;150749.13;6185132;23;20240;-61
2023/12/21 09:09:42;;;;;;;31.25;19.40;;;;;;;18.59;63.18;150710.94;6185295;23;20525;-64
2023/12/21 09:12:08;;;;;;;31.20;18.27;;;;;;;17.96;63.74;150550.69;6185724;23;20186;-64
2023/12/21 09:14:35;;;;;;;34.10;18.30;;;;;;;18.84;62.34;150773.25;6185082;23;20197;-65
2023/12/21 09:17:04;;;;;;;24.67;18.52;;;;;;;18.58;62.08;150708.44;6185506;23;20220;-64
2023/12/21 09:19:34;;;;;;;25.42;17.55;;;;;;;18.47;62.86;150679.09;6185270;23;20162;-65
2023/12/21 09:22:02;;;;;;;28.65;17.30;;;;;;;17.68;64.49;150482.06;6184875;23;20192;-64
2023/12/21 09:24:29;;;;;;;21.27;17.00;;;;;;;17.35;66.10;150398.16;6185072;23;20224;-64
2023/12/21 09:26:56;;;;;;;36.22;18.33;;;;;;;17.62;64.94;150466.81;6184984;23;20236;-64
2023/12/21 09:29:23;;;;;;;26.30;17.17;;;;;;;17.05;67.15;150323.19;6185451;23;20593;-64
2023/12/21 09:31:50;;;;;;;28.50;17.70;;;;;;;17.62;66.33;150465.53;6184718;23;20178;-65
2023/12/21 09:34:18;;;;;;;26.67;17.23;;;;;;;18.26;64.39;150626.97;6185817;23;20613;-64
2023/12/21 09:36:46;;;;;;;19.02;16.50;;;;;;;18.60;63.20;150712.22;6185374;23;20586;-64
2023/12/21 09:39:14;;;;;;;21.90;16.60;;;;;;;18.53;63.58;150695.72;6184743;23;20249;-63
2023/12/21 09:41:41;;;;;;;27.50;17.27;;;;;;;18.15;64.04;150599.00;6184598;23;20165;-63
2023/12/21 09:44:11;;;;;;;23.23;17.35;;;;;;;18.27;64.58;150630.81;6184769;23;20217;-63
2023/12/21 09:46:39;;;;;;;17.23;15.73;;;;;;;18.07;64.28;150579.94;6184603;23;20165;-63
2023/12/21 09:49:08;;;;;;;22.65;17.85;;;;;;;18.23;63.81;150619.34;6184802;23;20194;-64
2023/12/21 09:51:38;;;;;;;22.45;17.00;;;;;;;17.79;64.93;150510.00;6185293;23;20202;-64
2023/12/21 09:54:08;;;;;;;19.90;15.90;;;;;;;17.02;67.26;150315.53;6184582;23;20206;-63
2023/12/21 09:56:35;;;;;;;19.87;17.40;;;;;;;17.49;66.90;150433.69;6184648;23;20158;-63
2023/12/21 09:59:04;;;;;;;23.37;16.77;;;;;;;18.03;64.79;150568.50;6185836;23;20158;-64
2023/12/21 10:01:31;;;;;;;17.17;15.67;;;;;;;17.96;64.71;150551.97;6185094;23;20189;-63
2023/12/21 10:03:58;;;;;;;16.95;15.48;;;;;;;18.61;63.35;150714.78;6185246;23;20169;-64
2023/12/21 10:06:26;;;;;;;17.75;16.13;;;;;;;18.88;61.73;150782.19;6184896;23;20164;-63
2023/12/21 10:08:54;;;;;;;17.52;15.70;;;;;;;18.42;62.21;150667.66;6184498;23;20164;-64
2023/12/21 10:11:22;;;;;;;16.58;15.00;;;;;;;18.70;61.31;150737.69;6184388;23;20179;-63
2023/12/21 10:13:49;;;;;;;16.33;14.73;;;;;;;17.92;62.56;150540.50;6184691;23;20158;-63
2023/12/21 10:16:17;;;;;;;19.40;14.68;;;;;;;18.38;62.97;150656.19;6184795;23;20158;-63
2023/12/21 10:18:45;;;;;;;18.37;14.27;;;;;;;17.45;64.29;150422.25;6184303;23;20170;-63
2023/12/21 10:21:12;;;;;;;18.58;13.98;;;;;;;18.24;63.54;150623.19;6184711;23;20164;-64
2023/12/21 10:23:41;;;;;;;15.45;14.05;;;;;;;18.44;61.79;150672.75;6184685;23;20217;-63
2023/12/21 10:26:08;;;;;;;16.42;14.20;;;;;;;18.01;63.69;150563.41;6184197;23;20174;-64
2023/12/21 10:28:37;;;;;;;21.63;14.52;;;;;;;17.82;64.10;150515.13;6184261;23;20186;-63
2023/12/21 10:31:08;;;;;;;15.02;13.52;;;;;;;17.99;63.77;150559.56;6184393;23;20234;-63
2023/12/21 10:33:35;;;;;;;14.80;13.27;;;;;;;18.22;63.57;150616.78;6184348;23;20154;-63
2023/12/21 10:36:03;;;;;;;14.55;13.52;;;;;;;18.73;61.73;150744.00;6184210;23;20162;-63
2023/12/21 10:38:32;;;;;;;14.70;13.48;;;;;;;18.57;61.51;150704.59;6183919;23;20591;-64
2023/12/21 10:41:05;;;;;;;16.20;14.75;;;;;;;19.06;60.81;150827.97;6184419;23;20654;-63
2023/12/21 10:43:34;;;;;;;16.48;14.60;;;;;;;18.51;61.80;150690.53;6183997;23;20170;-65
2023/12/21 10:46:03;;;;;;;16.02;14.40;;;;;;;20.05;59.44;151078.75;6184135;23;20273;-64
2023/12/21 10:48:33;;;;;;;14.45;13.32;;;;;;;20.20;57.08;151115.66;6184423;23;20214;-65
2023/12/21 10:51:03;;;;;;;13.88;12.98;;;;;;;19.48;58.13;150933.63;6184135;23;20190;-65
2023/12/21 10:53:31;;;;;;;14.02;13.00;;;;;;;19.31;57.72;150891.56;6184276;23;20276;-63
2023/12/21 10:55:58;;;;;;;14.85;13.68;;;;;;;20.00;57.18;151064.72;6185305;23;20201;-64
2023/12/21 10:58:27;;;;;;;15.43;14.20;;;;;;;18.64;58.91;150722.38;6184421;23;20158;-64
2023/12/21 11:00:56;;;;;;;15.45;14.20;;;;;;;19.13;59.00;150845.81;6184848;23;20497;-64
2023/12/21 11:03:26;;;;;;;16.60;14.25;;;;;;;20.15;57.28;151102.94;6184934;23;20236;-64
2023/12/21 11:05:55;;;;;;;14.15;13.07;;;;;;;20.34;55.70;151150.09;6185182;23;20552;-64
2023/12/21 11:08:24;;;;;;;17.15;13.98;;;;;;;20.31;55.89;151142.47;6184265;23;20166;-63
2023/12/21 11:10:51;;;;;;;18.27;13.85;;;;;;;20.47;55.62;151183.19;6184420;23;20179;-64